createdAt,value
2024-01-28T00:02:53.332Z,22.1
2024-01-28T00:05:53.518Z,21
2024-01-28T00:08:53.293Z,20.6
2024-01-28T00:11:53.290Z,18.8
2024-01-28T00:14:53.307Z,19.7
2024-01-28T00:17:53.338Z,17.3
2024-01-28T00:20:53.294Z,15.8
2024-01-28T00:23:53.298Z,19.8
2024-01-28T00:26:53.300Z,15.9
2024-01-28T00:29:53.302Z,14.1
2024-01-28T00:32:53.374Z,19.1
2024-01-28T00:35:53.308Z,17.7
2024-01-28T00:38:53.310Z,15.9
2024-01-28T00:41:53.312Z,17.6
2024-01-28T00:44:53.323Z,18.2
2024-01-28T00:47:53.390Z,15.7
2024-01-28T00:50:53.322Z,15.9
2024-01-28T00:53:53.321Z,15.5
2024-01-28T00:56:53.325Z,16.1
2024-01-28T00:59:53.317Z,16.9
2024-01-28T01:02:53.338Z,21.5
2024-01-28T01:05:53.331Z,22.4
2024-01-28T01:08:53.329Z,19.2
2024-01-28T01:11:53.322Z,20.6
2024-01-28T01:14:53.329Z,21.5
2024-01-28T01:17:53.356Z,22
2024-01-28T01:20:53.343Z,22.3
2024-01-28T01:23:53.328Z,23.9
2024-01-28T01:26:53.320Z,25.4
2024-01-28T01:29:53.330Z,21.7
2024-01-28T01:32:53.427Z,22.1
2024-01-28T01:35:53.341Z,21.8
2024-01-28T01:38:53.350Z,25.8
2024-01-28T01:41:53.416Z,23.9
2024-01-28T01:44:53.349Z,23.2
2024-01-28T01:47:53.358Z,22.7
2024-01-28T01:50:53.393Z,20.4
2024-01-28T01:53:53.343Z,20.1
2024-01-28T01:56:53.350Z,25.3
2024-01-28T01:59:53.373Z,20.5
2024-01-28T02:02:53.366Z,21.6
2024-01-28T02:05:53.365Z,22.6
2024-01-28T02:08:53.355Z,24.5
2024-01-28T02:11:53.359Z,22.3
2024-01-28T02:14:53.358Z,19
2024-01-28T02:17:53.404Z,20.5
2024-01-28T02:20:53.361Z,21.2
2024-01-28T02:23:53.366Z,19.8
2024-01-28T02:26:53.368Z,20.4
2024-01-28T02:29:53.385Z,20.9
2024-01-28T02:32:53.429Z,18.7
2024-01-28T02:35:53.376Z,19.8
2024-01-28T02:38:53.380Z,19.1
2024-01-28T02:41:53.379Z,19.6
2024-01-28T02:44:53.386Z,21
2024-01-28T02:47:53.410Z,21
2024-01-28T02:50:53.383Z,23
2024-01-28T02:53:53.407Z,18.8
2024-01-28T02:56:53.490Z,19.9
2024-01-28T02:59:53.390Z,17.7
2024-01-28T03:02:53.417Z,18.2
2024-01-28T03:05:53.397Z,18.2
2024-01-28T03:08:53.387Z,20.4
2024-01-28T03:11:53.405Z,21.3
2024-01-28T03:14:53.396Z,19.4
2024-01-28T03:17:53.418Z,19.7
2024-01-28T03:20:53.421Z,22.9
2024-01-28T03:23:53.403Z,22.1
2024-01-28T03:26:53.406Z,18.8
2024-01-28T03:29:53.411Z,21
2024-01-28T03:32:53.469Z,19.6
2024-01-28T03:35:53.420Z,21.4
2024-01-28T03:38:53.417Z,21.5
2024-01-28T03:41:53.432Z,19.9
2024-01-28T03:44:53.426Z,19.6
2024-01-28T03:47:53.463Z,18
2024-01-28T03:50:53.418Z,21.4
2024-01-28T03:53:53.426Z,24.3
2024-01-28T03:56:53.429Z,29.2
2024-01-28T03:59:53.437Z,26.1
2024-01-28T04:02:53.431Z,26.2
2024-01-28T04:05:53.429Z,22.5
2024-01-28T04:08:53.434Z,25.4
2024-01-28T04:11:53.440Z,24.8
2024-01-28T04:14:53.442Z,27.3
2024-01-28T04:17:53.499Z,21.6
2024-01-28T04:20:53.435Z,23.6
2024-01-28T04:23:53.444Z,25
2024-01-28T04:26:53.443Z,23.1
2024-01-28T04:29:53.463Z,23.7
2024-01-28T04:32:53.464Z,21.9
2024-01-28T04:35:53.463Z,24.5
2024-01-28T04:38:53.455Z,23.6
2024-01-28T04:41:53.453Z,23.3
2024-01-28T04:44:53.548Z,20.5
2024-01-28T04:47:53.468Z,21.5
2024-01-28T04:50:53.457Z,22
2024-01-28T04:53:53.467Z,20
2024-01-28T04:56:53.467Z,19.9
2024-01-28T04:59:53.463Z,19.2
2024-01-28T05:02:53.488Z,20.3
2024-01-28T05:05:53.532Z,27.3
2024-01-28T05:08:53.468Z,22
2024-01-28T05:11:53.472Z,21.2
2024-01-28T05:14:53.473Z,21
2024-01-28T05:17:53.489Z,22
2024-01-28T05:20:53.472Z,21.1
2024-01-28T05:23:53.481Z,19.7
2024-01-28T05:26:53.479Z,18.5
2024-01-28T05:29:53.484Z,17.9
2024-01-28T05:32:53.495Z,19.8
2024-01-28T05:35:53.503Z,24.4
2024-01-28T05:38:53.489Z,23.3
2024-01-28T05:41:53.484Z,23.6
2024-01-28T05:44:53.486Z,20.2
2024-01-28T05:47:53.516Z,23
2024-01-28T05:50:53.474Z,26.9
2024-01-28T05:53:53.492Z,23.4
2024-01-28T05:56:53.496Z,21.1
2024-01-28T05:59:54.535Z,21.8
2024-01-28T06:02:53.540Z,24.2
2024-01-28T06:05:53.510Z,21.6
2024-01-28T06:08:53.486Z,21.7
2024-01-28T06:11:53.488Z,20.3
2024-01-28T06:14:53.494Z,24.4
2024-01-28T06:17:53.527Z,25
2024-01-28T06:20:53.489Z,27.1
2024-01-28T06:23:53.503Z,29.4
2024-01-28T06:26:54.902Z,24.1
2024-01-28T06:29:53.503Z,26.6
2024-01-28T06:32:53.526Z,25.2
2024-01-28T06:35:53.495Z,28.8
2024-01-28T06:38:53.518Z,27.1
2024-01-28T06:41:53.522Z,22.7
2024-01-28T06:44:53.508Z,23
2024-01-28T06:47:53.522Z,24.6
2024-01-28T06:50:53.514Z,22.2
2024-01-28T06:53:53.542Z,26.4
2024-01-28T06:56:53.530Z,26.6
2024-01-28T06:59:53.524Z,27.5
2024-01-28T07:02:53.629Z,22.8
2024-01-28T07:05:53.568Z,22.4
2024-01-28T07:08:53.534Z,24.8
2024-01-28T07:11:53.529Z,27.7
2024-01-28T07:14:53.530Z,27.4
2024-01-28T07:17:53.716Z,23.2
2024-01-28T07:20:53.527Z,23.4
2024-01-28T07:23:53.530Z,25.3
2024-01-28T07:26:53.543Z,22.1
2024-01-28T07:29:53.545Z,23.3
2024-01-28T07:32:53.656Z,24.2
2024-01-28T07:35:53.552Z,21.4
2024-01-28T07:38:53.542Z,24.9
2024-01-28T07:41:53.556Z,21.5
2024-01-28T07:44:53.563Z,24
2024-01-28T07:47:53.582Z,25.2
2024-01-28T07:50:53.550Z,24.5
2024-01-28T07:53:53.560Z,27.4
2024-01-28T07:56:53.570Z,22.2
2024-01-28T07:59:53.573Z,26.1
2024-01-28T08:02:55.108Z,23.7
2024-01-28T08:05:53.585Z,21.8
2024-01-28T08:08:53.573Z,20.2
2024-01-28T08:11:53.565Z,18.9
2024-01-28T08:14:53.886Z,19.6
2024-01-28T08:17:53.630Z,17
2024-01-28T08:20:53.578Z,12.2
2024-01-28T08:23:53.576Z,15.7
2024-01-28T08:26:53.571Z,12.6
2024-01-28T08:29:53.847Z,13.5
2024-01-28T08:32:53.618Z,15.6
2024-01-28T08:35:53.589Z,14.1
2024-01-28T08:38:53.577Z,11.3
2024-01-28T08:41:53.591Z,11.6
2024-01-28T08:44:53.595Z,11.1
2024-01-28T08:47:53.600Z,11.6
2024-01-28T08:50:53.597Z,11.7
2024-01-28T08:53:53.603Z,9.6
2024-01-28T08:56:53.616Z,9.7
2024-01-28T08:59:53.640Z,10.7
2024-01-28T09:02:53.596Z,11.3
2024-01-28T09:05:53.628Z,11.2
2024-01-28T09:08:53.605Z,12
2024-01-28T09:11:54.343Z,9.4
2024-01-28T09:14:53.610Z,10.3
2024-01-28T09:17:53.634Z,8.7
2024-01-28T09:20:53.628Z,11.5
2024-01-28T09:23:53.628Z,9.8
2024-01-28T09:26:53.619Z,9.5
2024-01-28T09:29:53.629Z,12
2024-01-28T09:32:53.632Z,11.3
2024-01-28T09:35:53.705Z,10.3
2024-01-28T09:38:53.623Z,10.9
2024-01-28T09:41:53.622Z,11.3
2024-01-28T09:44:53.646Z,11.4
2024-01-28T09:47:53.735Z,9.9
2024-01-28T09:50:53.641Z,9.6
2024-01-28T09:53:53.645Z,10
2024-01-28T09:56:53.647Z,12.9
2024-01-28T09:59:53.631Z,10.8
2024-01-28T10:02:53.642Z,12.4
2024-01-28T10:05:53.637Z,12.9
2024-01-28T10:08:53.649Z,11.9
2024-01-28T10:11:53.639Z,10.5
2024-01-28T10:14:53.647Z,11.5
2024-01-28T10:17:53.702Z,10.2
2024-01-28T10:20:53.648Z,9
2024-01-28T10:23:53.652Z,9.5
2024-01-28T10:26:53.656Z,9.8
2024-01-28T10:29:53.637Z,10.9
2024-01-28T10:32:53.683Z,9.9
2024-01-28T10:35:53.646Z,9.5
2024-01-28T10:38:53.649Z,11
2024-01-28T10:41:53.653Z,10.9
2024-01-28T10:44:53.673Z,10.1
2024-01-28T10:47:53.676Z,11.4
2024-01-28T10:50:53.653Z,10.3
2024-01-28T10:53:53.672Z,8.7
2024-01-28T10:56:53.657Z,10.3
2024-01-28T10:59:53.666Z,11.3
2024-01-28T11:02:53.701Z,10.6
2024-01-28T11:05:53.721Z,9.1
2024-01-28T11:08:53.676Z,10.9
2024-01-28T11:11:53.674Z,9.1
2024-01-28T11:14:53.672Z,7.4
2024-01-28T11:17:53.717Z,9.9
2024-01-28T11:20:53.672Z,7.4
2024-01-28T11:23:53.680Z,9.5
2024-01-28T11:26:53.677Z,9.4
2024-01-28T11:29:53.675Z,9.5
2024-01-28T11:32:53.798Z,10.5
2024-01-28T11:35:53.682Z,10.6
2024-01-28T11:38:53.671Z,9.5
2024-01-28T11:41:53.675Z,8.1
2024-01-28T11:44:53.688Z,8.7
2024-01-28T11:47:53.792Z,10.5
2024-01-28T11:50:53.691Z,9
2024-01-28T11:53:53.680Z,8.7
2024-01-28T11:56:53.682Z,9.5
2024-01-28T11:59:53.687Z,8.4
2024-01-28T12:02:53.724Z,6.2
2024-01-28T12:05:53.705Z,7.5
2024-01-28T12:08:53.684Z,6.8
2024-01-28T12:11:53.687Z,6.3
2024-01-28T12:14:53.704Z,8.4
2024-01-28T12:17:53.780Z,5.7
2024-01-28T12:20:53.706Z,7.5
2024-01-28T12:23:53.714Z,6
2024-01-28T12:26:53.714Z,7.8
2024-01-28T12:29:53.712Z,8.1
2024-01-28T12:32:53.758Z,8.8
2024-01-28T12:35:53.707Z,6.6
2024-01-28T12:38:53.717Z,6.5
2024-01-28T12:41:53.706Z,5.9
2024-01-28T12:44:53.712Z,7
2024-01-28T12:47:53.756Z,8
2024-01-28T12:50:53.706Z,4.8
2024-01-28T12:53:53.711Z,6.3
2024-01-28T12:56:53.720Z,6.2
2024-01-28T12:59:53.723Z,6.5
2024-01-28T13:02:53.708Z,7.6
2024-01-28T13:05:53.755Z,7.4
2024-01-28T13:08:53.723Z,5.7
2024-01-28T13:11:53.727Z,6.2
2024-01-28T13:14:53.738Z,5.7
2024-01-28T13:17:53.746Z,6.8
2024-01-28T13:20:53.723Z,6.1
2024-01-28T13:23:53.726Z,6.6
2024-01-28T13:26:53.718Z,6.1
2024-01-28T13:29:55.141Z,7.4
2024-01-28T13:32:53.824Z,7.5
2024-01-28T13:35:53.727Z,7.3
2024-01-28T13:38:53.740Z,7.2
2024-01-28T13:41:53.741Z,8.5
2024-01-28T13:44:53.744Z,7.2
2024-01-28T13:47:53.843Z,7.3
2024-01-28T13:50:53.741Z,8.5
2024-01-28T13:53:53.744Z,8.6
2024-01-28T13:56:53.747Z,7.8
2024-01-28T13:59:53.745Z,8.5
2024-01-28T14:02:53.804Z,7.6
2024-01-28T14:05:53.748Z,8.4
2024-01-28T14:08:53.744Z,8.6
2024-01-28T14:11:53.755Z,8.7
2024-01-28T14:14:53.753Z,10.5
2024-01-28T14:17:53.787Z,11.3
2024-01-28T14:20:53.776Z,8.3
2024-01-28T14:23:53.754Z,9.1
2024-01-28T14:26:53.761Z,9.9
2024-01-28T14:29:53.759Z,8.5
2024-01-28T14:32:53.794Z,9
2024-01-28T14:35:53.771Z,10
2024-01-28T14:38:53.766Z,9.6
2024-01-28T14:41:53.825Z,11.2
2024-01-28T14:44:53.774Z,11.6
2024-01-28T14:47:53.813Z,9.8
2024-01-28T14:50:53.797Z,12.2
2024-01-28T14:53:53.765Z,10.5
2024-01-28T14:56:53.775Z,10.9
2024-01-28T14:59:53.783Z,10.4
2024-01-28T15:02:53.799Z,10.4
2024-01-28T15:05:53.820Z,11.4
2024-01-28T15:08:53.782Z,11.4
2024-01-28T15:11:53.784Z,11.1
2024-01-28T15:14:53.793Z,10.9
2024-01-28T15:17:54.248Z,11.8
2024-01-28T15:20:53.788Z,10.8
2024-01-28T15:23:53.796Z,12.8
2024-01-28T15:26:53.794Z,11.5
2024-01-28T15:29:53.817Z,12.3
2024-01-28T15:32:53.860Z,11.6
2024-01-28T15:35:53.795Z,11.9
2024-01-28T15:38:53.805Z,11.4
2024-01-28T15:41:53.796Z,13
2024-01-28T15:44:53.806Z,12.5
2024-01-28T15:47:53.813Z,14.5
2024-01-28T15:50:53.797Z,12.3
2024-01-28T15:53:53.806Z,10.7
2024-01-28T15:56:53.808Z,12.1
2024-01-28T15:59:55.202Z,12.1
2024-01-28T16:02:53.815Z,13.4
2024-01-28T16:05:53.831Z,12.8
2024-01-28T16:08:53.809Z,14
2024-01-28T16:11:53.811Z,14.6
2024-01-28T16:14:53.808Z,13.9
2024-01-28T16:17:53.842Z,12.9
2024-01-28T16:20:53.815Z,14.6
2024-01-28T16:23:53.827Z,15.3
2024-01-28T16:26:53.826Z,15.3
2024-01-28T16:29:53.830Z,21.2
2024-01-28T16:32:53.846Z,21.4
2024-01-28T16:35:53.906Z,18.8
2024-01-28T16:38:53.835Z,16.5
2024-01-28T16:41:54.133Z,15.2
2024-01-28T16:44:53.831Z,18.3
2024-01-28T16:47:53.900Z,16.7
2024-01-28T16:50:53.852Z,16.5
2024-01-28T16:53:53.838Z,15.1
2024-01-28T16:56:53.837Z,15.8
2024-01-28T16:59:53.830Z,22
2024-01-28T17:02:53.984Z,19.3
2024-01-28T17:05:53.913Z,16.6
2024-01-28T17:08:53.839Z,14.4
2024-01-28T17:11:53.837Z,16.4
2024-01-28T17:14:53.862Z,17.4
2024-01-28T17:17:53.857Z,17.1
2024-01-28T17:20:53.924Z,16.2
2024-01-28T17:23:53.855Z,16.8
2024-01-28T17:26:53.932Z,18
2024-01-28T17:29:53.853Z,16.3
2024-01-28T17:32:53.872Z,18.1
2024-01-28T17:35:53.868Z,20.1
2024-01-28T17:38:53.860Z,15.1
2024-01-28T17:41:53.859Z,13.3
2024-01-28T17:44:53.864Z,14.9
2024-01-28T17:47:53.917Z,16.6
2024-01-28T17:50:53.866Z,13.5
2024-01-28T17:53:53.866Z,11.6
2024-01-28T17:56:53.871Z,13
2024-01-28T17:59:53.886Z,14.9
2024-01-28T18:02:54.620Z,14.9
2024-01-28T18:05:53.868Z,14.7
2024-01-28T18:08:53.887Z,14
2024-01-28T18:11:53.872Z,15.2
2024-01-28T18:14:53.888Z,14.7
2024-01-28T18:17:53.925Z,14.7
2024-01-28T18:20:53.907Z,16.6
2024-01-28T18:23:53.904Z,16.3
2024-01-28T18:26:53.901Z,18.5
2024-01-28T18:29:53.897Z,17.5
2024-01-28T18:32:54.902Z,14.6
2024-01-28T18:35:53.911Z,11.6
2024-01-28T18:38:53.912Z,14.2
2024-01-28T18:41:53.901Z,10.8
2024-01-28T18:44:53.956Z,10.6
2024-01-28T18:47:54.060Z,11.3
2024-01-28T18:50:53.970Z,11.8
2024-01-28T18:53:54.012Z,11.6
2024-01-28T18:56:54.011Z,13.6
2024-01-28T18:59:54.006Z,13.1
2024-01-28T19:02:54.012Z,13.2
2024-01-28T19:05:54.095Z,11.4
2024-01-28T19:08:54.006Z,11.3
2024-01-28T19:11:54.016Z,10.9
2024-01-28T19:14:54.013Z,11.6
2024-01-28T19:17:54.037Z,10.6
2024-01-28T19:20:54.018Z,9.7
2024-01-28T19:23:54.013Z,25.2
2024-01-28T19:26:54.039Z,19.6
2024-01-28T19:29:54.021Z,12.2
2024-01-28T19:32:54.034Z,10.6
2024-01-28T19:35:54.012Z,10.5
2024-01-28T19:38:54.030Z,8.9
2024-01-28T19:41:54.024Z,10.2
2024-01-28T19:44:54.028Z,9.3
2024-01-28T19:47:54.104Z,10.4
2024-01-28T19:50:54.026Z,9.8
2024-01-28T19:53:54.029Z,9.6
2024-01-28T19:56:54.035Z,9.9
2024-01-28T19:59:54.027Z,9.7
2024-01-28T20:02:54.032Z,9.3
2024-01-28T20:05:54.063Z,11.7
2024-01-28T20:08:54.039Z,12
2024-01-28T20:11:54.039Z,13.5
2024-01-28T20:14:54.200Z,9.7
2024-01-28T20:17:54.110Z,10.7
2024-01-28T20:20:54.040Z,13
2024-01-28T20:23:54.044Z,14.8
2024-01-28T20:26:54.039Z,10.2
2024-01-28T20:29:54.044Z,9.1
2024-01-28T20:32:54.061Z,9.7
2024-01-28T20:35:54.050Z,8.7
2024-01-28T20:38:54.061Z,8.6
2024-01-28T20:41:54.075Z,9.6
2024-01-28T20:44:54.194Z,10.2
2024-01-28T20:47:54.073Z,9.5
2024-01-28T20:50:54.046Z,9.9
2024-01-28T20:53:54.046Z,9.7
2024-01-28T20:56:54.074Z,10.6
2024-01-28T20:59:54.052Z,9.3
2024-01-28T21:02:54.131Z,9.8
2024-01-28T21:05:54.062Z,10.4
2024-01-28T21:08:54.057Z,10.5
2024-01-28T21:11:54.059Z,9.8
2024-01-28T21:14:54.178Z,10
2024-01-28T21:17:54.073Z,10
2024-01-28T21:20:54.054Z,8.6
2024-01-28T21:23:54.062Z,10
2024-01-28T21:26:54.064Z,9.1
2024-01-28T21:29:54.063Z,9.7
2024-01-28T21:32:54.144Z,8.4
2024-01-28T21:35:54.085Z,10
2024-01-28T21:38:54.060Z,9.7
2024-01-28T21:41:54.068Z,11
2024-01-28T21:44:54.069Z,9.6
2024-01-28T21:47:54.090Z,9.5
2024-01-28T21:50:54.063Z,10.8
2024-01-28T21:53:54.071Z,11.4
2024-01-28T21:56:54.063Z,10.7
2024-01-28T21:59:54.068Z,10.2
2024-01-28T22:02:54.117Z,12.3
2024-01-28T22:05:54.070Z,11.3
2024-01-28T22:08:54.071Z,10.7
2024-01-28T22:11:54.071Z,11.9
2024-01-28T22:14:54.088Z,11.1
2024-01-28T22:17:54.104Z,11
2024-01-28T22:20:54.075Z,12.8
2024-01-28T22:23:54.085Z,12.7
2024-01-28T22:26:54.085Z,10.1
2024-01-28T22:29:54.074Z,10.7
2024-01-28T22:32:54.127Z,12.8
2024-01-28T22:35:54.089Z,15.2
2024-01-28T22:38:54.090Z,14.4
2024-01-28T22:41:54.087Z,11.4
2024-01-28T22:44:54.199Z,12
2024-01-28T22:47:54.138Z,13.6
2024-01-28T22:50:54.083Z,12.2
2024-01-28T22:53:54.084Z,11
2024-01-28T22:56:54.081Z,11.9
2024-01-28T22:59:54.086Z,11.1
2024-01-28T23:02:54.099Z,12.4
2024-01-28T23:05:54.127Z,11.7
2024-01-28T23:08:54.089Z,11.9
2024-01-28T23:11:54.103Z,13.1
2024-01-28T23:14:58.724Z,13.5
2024-01-28T23:17:54.206Z,11.4
2024-01-28T23:20:54.105Z,13.3
2024-01-28T23:23:54.102Z,13
2024-01-28T23:26:54.101Z,12
2024-01-28T23:29:54.099Z,13
2024-01-28T23:32:54.302Z,12.6
2024-01-28T23:35:54.151Z,12
2024-01-28T23:38:54.116Z,12.8
2024-01-28T23:41:54.103Z,11.9
2024-01-28T23:44:54.250Z,11.1
2024-01-28T23:47:54.167Z,12.1
2024-01-28T23:50:54.109Z,12.8
2024-01-28T23:53:54.112Z,12.8
2024-01-28T23:56:54.121Z,12.8
2024-01-28T23:59:54.178Z,11.8
